createdAt,value
2019-04-05T00:00:08.825Z,75.42
2019-04-05T00:02:38.413Z,75.30
2019-04-05T00:05:08.343Z,75.28
2019-04-05T00:07:37.846Z,74.42
2019-04-05T00:10:07.228Z,74.30
2019-04-05T00:12:36.766Z,74.35
2019-04-05T00:15:15.030Z,74.02
2019-04-05T00:17:38.655Z,73.39
2019-04-05T00:20:09.042Z,72.98
2019-04-05T00:22:38.710Z,72.84
2019-04-05T00:25:09.027Z,72.82
2019-04-05T00:27:38.312Z,73.28
2019-04-05T00:30:09.056Z,73.86
2019-04-05T00:32:38.628Z,74.21
2019-04-05T00:35:08.340Z,74.45
2019-04-05T00:37:37.982Z,74.47
2019-04-05T00:40:10.568Z,74.01
2019-04-05T00:42:40.079Z,73.64
2019-04-05T00:45:10.128Z,73.42
2019-04-05T00:47:39.706Z,73.19
2019-04-05T00:50:10.493Z,72.93
2019-04-05T00:52:41.772Z,73.49
2019-04-05T00:55:11.813Z,73.88
2019-04-05T00:57:41.479Z,73.80
2019-04-05T01:00:13.489Z,73.45
2019-04-05T01:02:42.985Z,73.48
2019-04-05T01:05:12.615Z,73.82
2019-04-05T01:07:42.214Z,73.81
2019-04-05T01:10:13.065Z,73.29
2019-04-05T01:12:42.223Z,74.09
2019-04-05T01:15:11.835Z,73.88
2019-04-05T01:17:41.764Z,74.33
2019-04-05T01:20:12.084Z,74.91
2019-04-05T01:22:42.851Z,74.70
2019-04-05T01:25:13.003Z,75.21
2019-04-05T01:27:42.915Z,75.58
2019-04-05T01:30:16.595Z,74.92
2019-04-05T01:32:47.231Z,75.31
2019-04-05T01:35:16.816Z,74.74
2019-04-05T01:37:46.569Z,75.21
2019-04-05T01:40:16.404Z,75.17
2019-04-05T01:42:46.571Z,74.89
2019-04-05T01:45:16.163Z,75.23
2019-04-05T01:47:45.837Z,75.02
2019-04-05T01:50:16.076Z,74.12
2019-04-05T01:52:46.472Z,73.27
2019-04-05T01:55:15.961Z,73.82
2019-04-05T01:57:45.623Z,74.05
2019-04-05T02:00:15.585Z,73.49
2019-04-05T02:02:45.213Z,71.33
2019-04-05T02:05:14.990Z,71.30
2019-04-05T02:07:45.330Z,71.21
2019-04-05T02:10:14.733Z,71.49
2019-04-05T02:12:44.396Z,71.80
2019-04-05T02:15:16.971Z,71.09
2019-04-05T02:17:46.597Z,70.78
2019-04-05T02:20:16.185Z,71.42
2019-04-05T02:22:45.556Z,72.22
2019-04-05T02:25:14.887Z,71.18
2019-04-05T02:27:44.143Z,71.15
2019-04-05T02:30:14.101Z,71.45
2019-04-05T02:32:43.541Z,70.27
2019-04-05T02:35:13.426Z,70.06
2019-04-05T02:37:43.138Z,69.32
2019-04-05T02:40:15.481Z,69.68
2019-04-05T02:42:47.674Z,69.64
2019-04-05T02:45:20.971Z,70.25
2019-04-05T02:47:53.612Z,70.46
2019-04-05T02:50:27.971Z,70.12
2019-04-05T02:53:00.582Z,70.84
2019-04-05T02:55:31.251Z,71.39
2019-04-05T02:58:03.216Z,71.96
2019-04-05T03:00:34.612Z,71.73
2019-04-05T03:03:05.618Z,71.31
2019-04-05T03:05:36.397Z,71.27
2019-04-05T03:08:06.634Z,71.31
2019-04-05T03:10:39.201Z,70.88
2019-04-05T03:13:09.111Z,71.47
2019-04-05T03:15:38.900Z,71.16
2019-04-05T03:18:08.465Z,69.62
2019-04-05T03:20:38.360Z,70.47
2019-04-05T03:23:08.279Z,70.92
2019-04-05T03:25:38.366Z,71.08
2019-04-05T03:28:08.391Z,69.15
2019-04-05T03:30:38.117Z,68.12
2019-04-05T03:33:07.640Z,69.41
2019-04-05T03:35:37.209Z,68.76
2019-04-05T03:38:07.498Z,69.60
2019-04-05T03:40:37.297Z,69.25
2019-04-05T03:43:07.067Z,70.14
2019-04-05T03:45:36.761Z,69.83
2019-04-05T03:48:06.470Z,69.67
2019-04-05T03:50:35.939Z,69.65
2019-04-05T03:53:05.172Z,69.20
2019-04-05T03:55:34.521Z,68.99
2019-04-05T03:58:04.239Z,70.09
2019-04-05T04:00:33.855Z,70.96
2019-04-05T04:03:04.167Z,70.39
2019-04-05T04:05:33.603Z,71.01
2019-04-05T04:08:03.209Z,72.09
2019-04-05T04:10:32.772Z,72.19
2019-04-05T04:13:02.501Z,72.70
2019-04-05T04:15:32.002Z,73.01
2019-04-05T04:18:00.841Z,73.32
2019-04-05T04:20:36.339Z,73.50
2019-04-05T04:23:08.046Z,72.89
2019-04-05T04:25:36.943Z,72.95
2019-04-05T04:28:07.074Z,73.12
2019-04-05T04:30:37.093Z,73.08
2019-04-05T04:33:06.875Z,73.51
2019-04-05T04:35:36.500Z,73.47
2019-04-05T04:38:06.870Z,73.17
2019-04-05T04:40:37.500Z,72.42
2019-04-05T04:43:07.081Z,72.97
2019-04-05T04:45:36.819Z,73.39
2019-04-05T04:48:06.716Z,73.66
2019-04-05T04:50:36.911Z,73.72
2019-04-05T04:53:07.360Z,74.37
2019-04-05T04:55:38.556Z,74.79
2019-04-05T04:58:08.251Z,75.39
2019-04-05T05:00:38.048Z,75.03
2019-04-05T05:03:07.663Z,74.79
2019-04-05T05:05:37.476Z,75.04
2019-04-05T05:08:08.364Z,74.87
2019-04-05T05:10:38.164Z,74.76
2019-04-05T05:13:08.190Z,74.31
2019-04-05T05:15:37.901Z,74.09
2019-04-05T05:18:07.594Z,74.40
2019-04-05T05:20:37.668Z,74.93
2019-04-05T05:23:07.383Z,72.76
2019-04-05T05:25:36.979Z,73.50
2019-04-05T05:28:06.894Z,71.67
2019-04-05T05:30:36.566Z,70.65
2019-04-05T05:33:06.380Z,70.99
2019-04-05T05:35:36.270Z,69.31
2019-04-05T05:38:05.613Z,69.30
2019-04-05T05:40:35.758Z,67.93
2019-04-05T05:43:05.163Z,67.40
2019-04-05T05:45:34.821Z,67.74
2019-04-05T05:48:04.534Z,67.90
2019-04-05T05:50:33.731Z,67.96
2019-04-05T05:53:03.437Z,67.62
2019-04-05T05:55:32.632Z,67.62
2019-04-05T05:58:01.913Z,67.23
2019-04-05T06:00:31.433Z,67.53
2019-04-05T06:03:00.690Z,66.60
2019-04-05T06:05:30.201Z,66.71
2019-04-05T06:08:00.955Z,66.92
2019-04-05T06:10:31.019Z,66.80
2019-04-05T06:13:00.656Z,67.15
2019-04-05T06:15:30.169Z,66.29
2019-04-05T06:18:04.945Z,65.86
2019-04-05T06:20:31.065Z,65.71
2019-04-05T06:23:00.603Z,65.99
2019-04-05T06:25:30.123Z,65.17
2019-04-05T06:28:00.054Z,66.70
2019-04-05T06:30:29.616Z,66.13
2019-04-05T06:32:58.892Z,65.22
2019-04-05T06:35:28.430Z,64.02
2019-04-05T06:37:57.922Z,63.72
2019-04-05T06:40:39.750Z,64.25
2019-04-05T06:42:58.749Z,63.48
2019-04-05T06:45:28.364Z,64.10
2019-04-05T06:47:57.901Z,64.11
2019-04-05T06:50:27.394Z,64.70
2019-04-05T06:52:56.986Z,65.04
2019-04-05T06:55:26.240Z,64.69
2019-04-05T06:57:56.207Z,65.69
2019-04-05T07:00:28.295Z,65.20
2019-04-05T07:02:59.204Z,64.35
2019-04-05T07:05:28.707Z,65.06
2019-04-05T07:07:57.983Z,64.62
2019-04-05T07:10:27.488Z,64.33
2019-04-05T07:12:57.341Z,64.08
2019-04-05T07:15:26.932Z,64.14
2019-04-05T07:17:56.599Z,64.65
2019-04-05T07:20:27.086Z,63.73
2019-04-05T07:22:56.384Z,63.91
2019-04-05T07:25:29.144Z,64.22
2019-04-05T07:27:57.448Z,63.56
2019-04-05T07:30:28.831Z,63.86
2019-04-05T07:32:58.613Z,63.51
2019-04-05T07:35:33.775Z,63.73
2019-04-05T07:37:59.046Z,63.69
2019-04-05T07:40:28.654Z,63.92
2019-04-05T07:42:58.159Z,63.59
2019-04-05T07:45:27.746Z,64.57
2019-04-05T07:47:57.359Z,64.67
2019-04-05T07:50:26.961Z,64.22
2019-04-05T07:52:56.571Z,64.14
2019-04-05T07:55:25.952Z,63.35
2019-04-05T07:57:55.558Z,63.10
2019-04-05T08:00:28.163Z,63.28
2019-04-05T08:02:57.566Z,63.06
2019-04-05T08:05:26.807Z,63.36
2019-04-05T08:07:56.549Z,63.55
2019-04-05T08:10:25.890Z,63.73
2019-04-05T08:12:55.927Z,63.42
2019-04-05T08:15:25.544Z,63.18
2019-04-05T08:17:54.932Z,63.49
2019-04-05T08:20:25.375Z,63.62
2019-04-05T08:22:55.122Z,64.03
2019-04-05T08:25:24.313Z,63.73
2019-04-05T08:27:53.544Z,62.60
2019-04-05T08:30:23.105Z,62.61
2019-04-05T08:32:52.550Z,62.85
2019-04-05T08:35:21.997Z,63.12
2019-04-05T08:37:51.596Z,63.85
2019-04-05T08:40:21.262Z,63.63
2019-04-05T08:42:50.678Z,63.93
2019-04-05T08:45:25.217Z,63.16
2019-04-05T08:47:55.516Z,64.09
2019-04-05T08:50:27.014Z,63.70
2019-04-05T08:52:56.707Z,64.11
2019-04-05T08:55:26.313Z,64.55
2019-04-05T08:57:55.908Z,65.59
2019-04-05T09:00:25.714Z,64.17
2019-04-05T09:02:55.472Z,64.84
2019-04-05T09:05:25.129Z,64.87
2019-04-05T09:07:54.570Z,64.39
2019-04-05T09:10:23.832Z,64.45
2019-04-05T09:12:53.354Z,64.61
2019-04-05T09:15:23.010Z,64.78
2019-04-05T09:17:52.315Z,64.60
2019-04-05T09:20:21.782Z,64.48
2019-04-05T09:22:51.052Z,65.06
2019-04-05T09:25:20.509Z,64.92
2019-04-05T09:27:50.031Z,65.36
2019-04-05T09:30:19.641Z,65.36
2019-04-05T09:32:50.775Z,65.15
2019-04-05T09:35:20.316Z,65.47
2019-04-05T09:37:49.791Z,66.30
2019-04-05T09:40:21.139Z,66.03
2019-04-05T09:42:50.724Z,66.06
2019-04-05T09:45:20.787Z,66.03
2019-04-05T09:47:50.319Z,66.76
2019-04-05T09:50:19.968Z,66.55
2019-04-05T09:52:49.463Z,66.58
2019-04-05T09:55:21.665Z,66.60
2019-04-05T09:57:50.855Z,67.38
2019-04-05T10:00:23.022Z,66.51
2019-04-05T10:02:52.774Z,65.60
2019-04-05T10:05:22.791Z,65.55
2019-04-05T10:07:55.175Z,65.66
2019-04-05T10:10:23.860Z,65.98
2019-04-05T10:12:53.304Z,66.05
2019-04-05T10:15:22.960Z,66.87
2019-04-05T10:17:52.550Z,67.41
2019-04-05T10:20:21.702Z,68.40
2019-04-05T10:22:51.237Z,67.11
2019-04-05T10:25:20.853Z,65.75
2019-04-05T10:27:50.650Z,65.36
2019-04-05T10:30:20.806Z,65.01
2019-04-05T10:32:50.253Z,64.33
2019-04-05T10:35:19.747Z,63.76
2019-04-05T10:37:49.093Z,65.13
2019-04-05T10:40:18.811Z,65.46
2019-04-05T10:42:48.413Z,63.81
2019-04-05T10:45:18.198Z,64.80
2019-04-05T10:47:47.867Z,65.13
2019-04-05T10:50:17.891Z,64.26
2019-04-05T10:52:47.434Z,64.33
2019-04-05T10:55:17.123Z,63.98
2019-04-05T10:57:46.735Z,64.19
2019-04-05T11:00:17.054Z,65.58
2019-04-05T11:02:46.639Z,64.82
2019-04-05T11:05:17.049Z,65.20
2019-04-05T11:07:47.449Z,65.88
2019-04-05T11:10:17.062Z,65.88
2019-04-05T11:12:46.279Z,65.14
2019-04-05T11:15:16.148Z,64.42
2019-04-05T11:17:45.715Z,64.51
2019-04-05T11:20:23.303Z,63.85
2019-04-05T11:22:49.997Z,63.80
2019-04-05T11:25:20.798Z,63.99
2019-04-05T11:27:50.314Z,63.74
2019-04-05T11:30:31.899Z,63.97
2019-04-05T11:33:01.237Z,64.93
2019-04-05T11:35:30.865Z,64.96
2019-04-05T11:38:00.467Z,64.43
2019-04-05T11:40:30.157Z,65.05
2019-04-05T11:43:02.090Z,65.00
2019-04-05T11:45:33.819Z,65.27
2019-04-05T11:48:05.291Z,65.59
2019-04-05T11:50:35.256Z,66.75
2019-04-05T11:53:04.989Z,66.29
2019-04-05T11:55:34.686Z,66.78
2019-04-05T11:58:04.115Z,66.02
2019-04-05T12:00:35.542Z,65.31
2019-04-05T12:03:09.881Z,65.31
2019-04-05T12:05:39.415Z,65.70
2019-04-05T12:08:10.617Z,65.68
2019-04-05T12:10:40.261Z,65.48
2019-04-05T12:13:09.838Z,65.01
2019-04-05T12:15:39.658Z,64.91
2019-04-05T12:18:09.224Z,66.10
2019-04-05T12:20:49.515Z,65.38
2019-04-05T12:23:10.015Z,65.16
2019-04-05T12:25:39.675Z,65.48
2019-04-05T12:28:10.675Z,65.66
2019-04-05T12:30:42.175Z,65.55
2019-04-05T12:33:14.168Z,65.95
2019-04-05T12:35:42.877Z,66.35
2019-04-05T12:38:14.111Z,66.15
2019-04-05T12:40:44.192Z,66.69
2019-04-05T12:43:14.293Z,66.45
2019-04-05T12:45:44.757Z,66.62
2019-04-05T12:48:16.094Z,66.72
2019-04-05T12:50:46.117Z,66.82
2019-04-05T12:53:15.766Z,67.35
2019-04-05T12:55:45.384Z,66.79
2019-04-05T12:58:15.024Z,66.22
2019-04-05T13:00:44.694Z,68.17
2019-04-05T13:03:14.158Z,67.34
2019-04-05T13:05:43.535Z,66.67
2019-04-05T13:08:13.014Z,66.29
2019-04-05T13:10:42.648Z,65.45
2019-04-05T13:13:13.867Z,66.15
2019-04-05T13:15:43.359Z,66.15
2019-04-05T13:18:12.961Z,65.64
2019-04-05T13:20:41.793Z,65.48
2019-04-05T13:23:11.274Z,65.12
2019-04-05T13:25:40.972Z,65.03
2019-04-05T13:28:13.591Z,65.72
2019-04-05T13:30:41.598Z,65.78
2019-04-05T13:33:10.850Z,65.44
2019-04-05T13:35:40.297Z,65.21
2019-04-05T13:38:10.109Z,65.40
2019-04-05T13:40:39.577Z,65.10
2019-04-05T13:43:09.222Z,64.98
2019-04-05T13:45:38.608Z,65.36
2019-04-05T13:48:09.125Z,65.14
2019-04-05T13:50:41.481Z,65.89
2019-04-05T13:53:11.424Z,66.46
2019-04-05T13:55:41.460Z,67.08
2019-04-05T13:58:11.893Z,66.60
2019-04-05T14:00:41.407Z,66.55
2019-04-05T14:03:10.999Z,66.24
2019-04-05T14:05:40.531Z,66.31
2019-04-05T14:08:10.888Z,65.89
2019-04-05T14:10:41.931Z,66.76
2019-04-05T14:13:11.550Z,66.55
2019-04-05T14:15:42.434Z,67.02
2019-04-05T14:18:14.490Z,66.94
2019-04-05T14:20:43.249Z,66.83
2019-04-05T14:23:12.516Z,67.75
2019-04-05T14:25:42.164Z,67.46
2019-04-05T14:28:11.769Z,66.73
2019-04-05T14:30:41.020Z,66.74
2019-04-05T14:33:10.063Z,67.11
2019-04-05T14:35:39.580Z,67.07
2019-04-05T14:38:11.660Z,66.52
2019-04-05T14:40:40.472Z,67.00
2019-04-05T14:43:10.030Z,66.67
2019-04-05T14:45:39.533Z,65.91
2019-04-05T14:48:09.087Z,66.84
2019-04-05T14:50:38.648Z,66.44
2019-04-05T14:53:08.325Z,66.79
2019-04-05T14:55:37.961Z,66.48
2019-04-05T14:58:10.339Z,66.55
2019-04-05T15:00:38.699Z,66.16
2019-04-05T15:03:08.239Z,65.82
2019-04-05T15:05:37.573Z,65.44
2019-04-05T15:08:07.219Z,65.92
2019-04-05T15:10:36.860Z,65.37
2019-04-05T15:13:06.382Z,65.59
2019-04-05T15:15:35.853Z,64.50
2019-04-05T15:18:05.516Z,65.84
2019-04-05T15:20:35.543Z,65.30
2019-04-05T15:23:05.198Z,65.92
2019-04-05T15:25:34.868Z,66.36
2019-04-05T15:28:04.557Z,65.84
2019-04-05T15:30:34.136Z,65.29
2019-04-05T15:33:03.991Z,65.67
2019-04-05T15:35:33.583Z,66.68
2019-04-05T15:38:03.109Z,66.32
2019-04-05T15:40:32.570Z,65.82
2019-04-05T15:43:01.868Z,66.35
2019-04-05T15:45:31.414Z,65.85
2019-04-05T15:48:01.074Z,66.06
2019-04-05T15:50:30.203Z,65.93
2019-04-05T15:53:02.281Z,66.69
2019-04-05T15:55:34.272Z,66.82
2019-04-05T15:58:03.842Z,66.28
2019-04-05T16:00:37.062Z,66.42
2019-04-05T16:03:08.426Z,67.04
2019-04-05T16:05:38.275Z,67.38
2019-04-05T16:08:08.219Z,67.68
2019-04-05T16:10:37.887Z,67.47
2019-04-05T16:13:08.174Z,67.60
2019-04-05T16:15:39.668Z,67.44
2019-04-05T16:18:09.355Z,67.22
2019-04-05T16:20:38.656Z,67.94
2019-04-05T16:23:09.761Z,67.08
2019-04-05T16:25:39.394Z,67.28
2019-04-05T16:28:09.491Z,67.63
2019-04-05T16:30:39.832Z,68.47
2019-04-05T16:33:09.450Z,69.38
2019-04-05T16:35:38.649Z,68.91
2019-04-05T16:38:07.958Z,68.36
2019-04-05T16:40:37.472Z,68.43
2019-04-05T16:43:07.151Z,68.75
2019-04-05T16:45:38.769Z,68.80
2019-04-05T16:48:08.413Z,69.38
2019-04-05T16:50:38.614Z,69.30
2019-04-05T16:53:09.991Z,69.67
2019-04-05T16:55:43.341Z,69.87
2019-04-05T16:58:13.015Z,69.59
2019-04-05T17:00:42.199Z,69.75
2019-04-05T17:03:11.763Z,69.76
2019-04-05T17:05:41.378Z,69.89
2019-04-05T17:08:10.877Z,70.09
2019-04-05T17:10:42.653Z,69.68
2019-04-05T17:13:12.786Z,69.82
2019-04-05T17:15:52.296Z,69.89
2019-04-05T17:18:20.690Z,70.09
2019-04-05T17:20:50.142Z,70.69
2019-04-05T17:23:19.711Z,71.24
2019-04-05T17:25:49.237Z,71.63
2019-04-05T17:28:18.500Z,71.85
2019-04-05T17:30:47.698Z,71.80
2019-04-05T17:33:17.184Z,72.48
2019-04-05T17:35:46.812Z,72.78
2019-04-05T17:38:16.035Z,73.00
2019-04-05T17:40:45.644Z,73.41
2019-04-05T17:43:15.141Z,73.05
2019-04-05T17:45:44.699Z,73.87
2019-04-05T17:48:15.927Z,73.71
2019-04-05T17:50:46.722Z,74.16
2019-04-05T17:53:16.323Z,73.51
2019-04-05T17:55:45.836Z,73.60
2019-04-05T17:58:17.019Z,74.17
2019-04-05T18:00:46.809Z,74.75
2019-04-05T18:03:16.423Z,74.42
2019-04-05T18:05:46.042Z,74.49
2019-04-05T18:08:15.718Z,74.66
2019-04-05T18:10:45.037Z,74.33
2019-04-05T18:13:14.353Z,74.56
2019-04-05T18:15:52.328Z,74.06
2019-04-05T18:18:14.895Z,74.19
2019-04-05T18:20:44.550Z,74.96
2019-04-05T18:23:24.427Z,74.93
2019-04-05T18:25:45.029Z,74.62
2019-04-05T18:28:14.364Z,74.50
2019-04-05T18:30:43.627Z,74.50
2019-04-05T18:33:13.100Z,75.08
2019-04-05T18:35:42.609Z,75.09
2019-04-05T18:38:12.625Z,74.71
2019-04-05T18:40:42.160Z,74.75
2019-04-05T18:43:11.905Z,74.74
2019-04-05T18:45:41.359Z,74.99
2019-04-05T18:48:10.985Z,74.85
2019-04-05T18:50:40.465Z,74.96
2019-04-05T18:53:09.954Z,74.36
2019-04-05T18:55:39.952Z,74.19
2019-04-05T18:58:09.409Z,75.08
2019-04-05T19:00:39.054Z,75.61
2019-04-05T19:03:08.501Z,76.01
2019-04-05T19:05:37.726Z,76.02
2019-04-05T19:08:07.271Z,75.87
2019-04-05T19:10:37.605Z,76.20
2019-04-05T19:13:09.997Z,76.00
2019-04-05T19:15:39.681Z,76.88
2019-04-05T19:18:09.276Z,77.91
2019-04-05T19:20:40.302Z,77.33
2019-04-05T19:23:11.424Z,76.97
2019-04-05T19:25:41.463Z,76.68
2019-04-05T19:28:15.845Z,76.89
2019-04-05T19:48:31.349Z,76.18
2019-04-05T19:50:54.871Z,76.40
2019-04-05T19:53:25.562Z,76.51
2019-04-05T19:55:55.250Z,75.84
2019-04-05T19:58:24.847Z,75.60
2019-04-05T20:00:54.427Z,75.93
2019-04-05T20:03:24.089Z,76.15
2019-04-05T20:05:53.360Z,76.29
2019-04-05T20:08:22.747Z,76.65
2019-04-05T20:10:52.307Z,76.14
2019-04-05T20:13:22.542Z,76.31
2019-04-05T20:15:51.922Z,76.33
2019-04-05T20:18:21.479Z,76.23
2019-04-05T20:20:50.987Z,76.29
2019-04-05T20:23:20.520Z,76.29
2019-04-05T20:25:50.241Z,76.55
2019-04-05T20:28:19.809Z,76.68
2019-04-05T20:30:49.375Z,75.96
2019-04-05T20:33:19.780Z,76.08
2019-04-05T20:35:49.573Z,76.72
2019-04-05T20:38:19.245Z,77.16
2019-04-05T20:40:48.756Z,76.91
2019-04-05T20:43:18.239Z,76.94
2019-04-05T20:45:47.837Z,76.81
2019-04-05T20:48:17.679Z,75.98
2019-04-05T20:50:47.299Z,76.22
2019-04-05T20:53:16.589Z,76.70
2019-04-05T20:55:46.140Z,77.37
2019-04-05T20:58:15.162Z,77.49
2019-04-05T21:00:44.896Z,77.28
2019-04-05T21:03:14.521Z,77.47
2019-04-05T21:05:43.976Z,76.84
2019-04-05T21:08:13.623Z,76.54
2019-04-05T21:10:43.083Z,76.57
2019-04-05T21:13:12.610Z,76.85
2019-04-05T21:15:42.199Z,76.92
2019-04-05T21:18:11.570Z,77.65
2019-04-05T21:20:41.137Z,78.35
2019-04-05T21:23:12.814Z,78.69
2019-04-05T21:25:42.038Z,78.73
2019-04-05T21:28:10.956Z,77.67
2019-04-05T21:30:40.405Z,77.56
2019-04-05T21:33:09.802Z,77.64
2019-04-05T21:35:39.389Z,77.25
2019-04-05T21:38:09.049Z,76.94
2019-04-05T21:40:38.688Z,76.94
2019-04-05T21:43:08.289Z,77.41
2019-04-05T21:45:37.985Z,77.07
2019-04-05T21:48:07.530Z,76.63
2019-04-05T21:50:37.123Z,77.20
2019-04-05T21:53:06.682Z,77.26
2019-04-05T21:55:36.372Z,76.84
2019-04-05T21:58:06.076Z,76.40
2019-04-05T22:00:37.361Z,77.10
2019-04-05T22:03:06.930Z,77.08
2019-04-05T22:05:36.498Z,76.91
2019-04-05T22:08:06.144Z,76.57
2019-04-05T22:10:35.734Z,76.57
2019-04-05T22:13:05.667Z,76.67
2019-04-05T22:15:35.372Z,75.87
2019-04-05T22:18:05.101Z,76.24
2019-04-05T22:20:34.733Z,75.77
2019-04-05T22:23:04.208Z,76.38
2019-04-05T22:25:33.929Z,75.77
2019-04-05T22:28:03.618Z,75.42
2019-04-05T22:30:33.144Z,75.71
2019-04-05T22:33:02.834Z,75.80
2019-04-05T22:35:32.656Z,76.22
2019-04-05T22:38:02.125Z,76.20
2019-04-05T22:40:31.935Z,76.34
2019-04-05T22:43:01.573Z,76.87
2019-04-05T22:45:31.287Z,76.82
2019-04-05T22:48:00.772Z,76.95
2019-04-05T22:50:30.386Z,77.25
2019-04-05T22:52:59.858Z,77.39
2019-04-05T22:55:29.373Z,77.36
2019-04-05T22:57:58.503Z,77.10
2019-04-05T23:00:27.908Z,77.34
2019-04-05T23:02:57.357Z,77.40
2019-04-05T23:05:26.927Z,77.32
2019-04-05T23:07:56.523Z,76.69
2019-04-05T23:10:25.829Z,76.99
2019-04-05T23:12:55.368Z,77.35
2019-04-05T23:15:25.273Z,77.25
2019-04-05T23:17:54.937Z,77.48
2019-04-05T23:20:24.535Z,76.44
2019-04-05T23:22:53.973Z,76.69
2019-04-05T23:25:23.312Z,77.09
2019-04-05T23:27:52.763Z,77.02
2019-04-05T23:30:23.885Z,77.40
2019-04-05T23:32:54.268Z,77.62
2019-04-05T23:35:23.753Z,77.18
2019-04-05T23:37:53.232Z,77.13
2019-04-05T23:40:22.747Z,77.49
2019-04-05T23:42:52.260Z,77.64
2019-04-05T23:45:21.717Z,77.50
2019-04-05T23:47:51.219Z,77.55
2019-04-05T23:50:20.753Z,77.40
2019-04-05T23:52:50.269Z,77.54
2019-04-05T23:55:19.457Z,77.29
2019-04-05T23:57:49.122Z,77.16
